Time;durP1;ratioP1;P1;durP2;ratioP2;P2;SDS_P1;SDS_P2;PMS_P1;PMS_P2;Temp;Humidity;BMP_temperature;BMP_pressure;BME280_temperature;BME280_humidity;BME280_pressure;Samples;Min_cycle;Max_cycle;Signal;HPM_P1;HPM_P2
2022/12/10 00:02:18;;;;;;;;;;;2.00;99.90;;;;;;2604065;54;19941;31
2022/12/10 00:04:53;;;;;;;;;;;2.10;99.90;;;;;;2622478;46;19973;31
2022/12/10 00:07:27;;;;;;;;;;;2.10;99.90;;;;;;2603641;54;19982;31
2022/12/10 00:10:02;;;;;;;;;;;2.00;99.90;;;;;;2622485;46;19993;31
2022/12/10 00:12:44;;;;;;;;;;;2.00;99.90;;;;;;2603636;54;19934;31
2022/12/10 00:15:19;;;;;;;;;;;2.00;99.90;;;;;;2774132;31;20494;31
2022/12/10 00:17:56;;;;;;;;;;;2.00;99.90;;;;;;2603822;54;20765;31
2022/12/10 00:20:33;;;;;;;;;;;2.00;99.90;;;;;;2604091;54;19941;31
2022/12/10 00:23:07;;;;;;;;;;;2.10;99.90;;;;;;2622426;46;19939;31
2022/12/10 00:25:42;;;;;;;;;;;2.00;99.90;;;;;;2622351;46;19935;31
2022/12/10 00:28:15;;;;;;;;;;;2.00;99.90;;;;;;2603985;54;19936;31
2022/12/10 00:30:50;;;;;;;;;;;2.00;99.90;;;;;;2603778;54;20736;31
2022/12/10 00:33:28;;;;;;;;;;;2.00;99.90;;;;;;2622283;46;20740;31
2022/12/10 00:36:06;;;;;;;;;;;2.00;99.90;;;;;;2622500;46;19935;31
2022/12/10 00:38:39;;;;;;;;;;;2.00;99.90;;;;;;2604066;54;19950;31
2022/12/10 00:41:16;;;;;;;;;;;2.00;99.90;;;;;;2604108;54;20705;31
2022/12/10 00:43:53;;;;;;;;;;;2.00;99.90;;;;;;2604803;46;19996;31
2022/12/10 00:46:29;;;;;;;;;;;2.00;99.90;;;;;;2622467;46;19935;31
2022/12/10 00:49:07;;;;;;;;;;;2.00;99.90;;;;;;2603974;54;19942;31
2022/12/10 00:51:41;;;;;;;;;;;2.00;99.90;;;;;;2603816;54;19990;31
2022/12/10 00:54:18;;;;;;;;;;;2.50;99.90;;;;;;2603973;54;19939;31
2022/12/10 00:56:53;;;;;;;;;;;2.00;99.90;;;;;;2603968;54;20718;31
2022/12/10 00:59:27;;;;;;;;;;;1.90;99.90;;;;;;2622579;46;19935;31
2022/12/10 01:02:00;;;;;;;;;;;1.90;99.90;;;;;;2622196;46;20818;31
2022/12/10 01:04:38;;;;;;;;;;;1.90;99.90;;;;;;2621952;46;20743;31
2022/12/10 01:07:15;;;;;;;;;;;1.90;99.90;;;;;;2622227;46;19935;31
2022/12/10 01:09:50;;;;;;;;;;;1.90;99.90;;;;;;2622260;46;19938;31
2022/12/10 01:12:24;;;;;;;;;;;1.90;99.90;;;;;;2603877;54;19934;31
2022/12/10 01:15:00;;;;;;;;;;;1.90;99.90;;;;;;2603757;54;20742;31
2022/12/10 01:17:34;;;;;;;;;;;1.90;99.90;;;;;;2603656;54;19998;31
2022/12/10 01:20:12;;;;;;;;;;;1.90;99.90;;;;;;2603510;54;19934;31
2022/12/10 01:22:47;;;;;;;;;;;1.90;99.90;;;;;;2622248;46;20747;31
2022/12/10 01:25:21;;;;;;;;;;;1.90;99.90;;;;;;2603578;54;20800;31
2022/12/10 01:27:55;;;;;;;;;;;1.90;99.90;;;;;;2603760;54;19981;31
2022/12/10 01:30:31;;;;;;;;;;;1.90;99.90;;;;;;2603665;54;20021;31
2022/12/10 01:33:05;;;;;;;;;;;1.90;99.90;;;;;;2603519;54;20770;31
2022/12/10 01:35:43;;;;;;;;;;;1.90;99.90;;;;;;2603555;54;19942;31
2022/12/10 01:38:17;;;;;;;;;;;1.90;99.90;;;;;;2603500;54;20759;31
2022/12/10 01:40:52;;;;;;;;;;;1.90;99.90;;;;;;2622013;46;19934;31
2022/12/10 01:43:27;;;;;;;;;;;2.00;99.90;;;;;;2603356;54;19941;31
2022/12/10 01:46:01;;;;;;;;;;;1.90;99.90;;;;;;2621939;46;19934;31
2022/12/10 01:48:40;;;;;;;;;;;1.90;99.90;;;;;;2622099;46;20058;31
2022/12/10 01:51:16;;;;;;;;;;;1.90;99.90;;;;;;2603672;54;19943;31
2022/12/10 01:53:52;;;;;;;;;;;1.90;99.90;;;;;;2603541;54;20789;31
2022/12/10 01:56:26;;;;;;;;;;;1.90;99.90;;;;;;2622185;46;19941;31
2022/12/10 01:59:01;;;;;;;;;;;1.90;99.90;;;;;;2622086;46;19935;31
2022/12/10 02:01:39;;;;;;;;;;;1.90;99.90;;;;;;2603728;54;19935;31
2022/12/10 02:04:14;;;;;;;;;;;1.90;99.90;;;;;;2622171;46;19941;31
2022/12/10 02:06:55;;;;;;;;;;;1.90;99.90;;;;;;2603545;54;20698;31
2022/12/10 02:09:30;;;;;;;;;;;1.90;99.90;;;;;;2603626;54;20720;31
2022/12/10 02:12:08;;;;;;;;;;;1.90;99.90;;;;;;2622186;46;20008;31
2022/12/10 02:14:44;;;;;;;;;;;1.90;99.90;;;;;;2603572;54;19935;31
2022/12/10 02:17:20;;;;;;;;;;;1.90;99.90;;;;;;2603609;54;19961;31
2022/12/10 02:19:58;;;;;;;;;;;1.90;99.90;;;;;;2603317;54;19942;31
2022/12/10 02:22:36;;;;;;;;;;;1.90;99.90;;;;;;2603532;54;19985;31
2022/12/10 02:25:10;;;;;;;;;;;1.90;99.90;;;;;;2603469;54;20025;31
2022/12/10 02:27:50;;;;;;;;;;;1.90;99.90;;;;;;2603303;54;20803;31
2022/12/10 02:30:27;;;;;;;;;;;1.90;99.90;;;;;;2621847;46;19935;31
2022/12/10 02:33:03;;;;;;;;;;;1.90;99.90;;;;;;2622094;46;19954;31
2022/12/10 02:35:38;;;;;;;;;;;1.90;99.90;;;;;;2621612;46;20777;31
2022/12/10 02:38:15;;;;;;;;;;;1.90;99.90;;;;;;2603504;54;20772;31
2022/12/10 02:40:52;;;;;;;;;;;1.80;99.90;;;;;;2603599;54;19934;31
2022/12/10 02:43:27;;;;;;;;;;;1.80;99.90;;;;;;2621755;46;19934;31
2022/12/10 02:46:04;;;;;;;;;;;1.90;99.90;;;;;;2603372;54;20777;31
2022/12/10 02:48:41;;;;;;;;;;;1.80;99.90;;;;;;2621940;47;20743;31
2022/12/10 02:51:16;;;;;;;;;;;1.80;99.90;;;;;;2604175;47;19953;31
2022/12/10 02:53:51;;;;;;;;;;;1.80;99.90;;;;;;2603291;54;19993;31
2022/12/10 02:56:26;;;;;;;;;;;1.90;99.90;;;;;;2603286;54;19998;31
2022/12/10 02:59:01;;;;;;;;;;;1.90;99.90;;;;;;2621699;47;19987;31
2022/12/10 03:01:38;;;;;;;;;;;1.90;99.90;;;;;;2621685;47;19942;31
2022/12/10 03:04:16;;;;;;;;;;;1.90;99.90;;;;;;2603192;54;20698;31
2022/12/10 03:06:52;;;;;;;;;;;1.90;99.90;;;;;;2621901;47;19938;31
2022/12/10 03:09:27;;;;;;;;;;;1.80;99.90;;;;;;2603547;54;19934;31
2022/12/10 03:12:01;;;;;;;;;;;1.80;99.90;;;;;;2621600;47;20051;31
2022/12/10 03:14:35;;;;;;;;;;;1.80;99.90;;;;;;2621591;47;20780;31
2022/12/10 03:17:09;;;;;;;;;;;1.80;99.90;;;;;;2621835;47;19935;31
2022/12/10 03:19:46;;;;;;;;;;;1.80;99.90;;;;;;2603376;54;19934;31
2022/12/10 03:22:20;;;;;;;;;;;1.80;99.90;;;;;;2603284;54;19957;31
2022/12/10 03:24:55;;;;;;;;;;;1.80;99.90;;;;;;2603104;54;19934;31
2022/12/10 03:27:28;;;;;;;;;;;1.70;99.90;;;;;;2621634;47;19935;31
2022/12/10 03:30:06;;;;;;;;;;;1.70;99.90;;;;;;2621612;47;20751;31
2022/12/10 03:32:41;;;;;;;;;;;1.70;99.90;;;;;;2603168;54;19939;31
2022/12/10 03:35:18;;;;;;;;;;;1.70;99.90;;;;;;2603723;47;19934;31
2022/12/10 03:37:52;;;;;;;;;;;1.70;99.90;;;;;;2603067;54;19941;31
2022/12/10 03:40:26;;;;;;;;;;;1.60;99.90;;;;;;2621253;47;20789;31
2022/12/10 03:43:00;;;;;;;;;;;1.70;99.90;;;;;;2603418;54;20736;31
2022/12/10 03:45:34;;;;;;;;;;;1.70;99.90;;;;;;2622748;46;19938;31
2022/12/10 03:48:08;;;;;;;;;;;1.70;99.90;;;;;;2622610;46;20775;31
2022/12/10 03:50:45;;;;;;;;;;;1.70;99.90;;;;;;2604319;54;19942;31
2022/12/10 03:53:18;;;;;;;;;;;1.70;99.90;;;;;;2604033;54;20721;31
2022/12/10 03:55:53;;;;;;;;;;;1.70;99.90;;;;;;2603817;54;19934;31
2022/12/10 03:58:27;;;;;;;;;;;1.70;99.90;;;;;;2603892;54;20795;31
2022/12/10 04:01:01;;;;;;;;;;;1.70;99.90;;;;;;2603991;54;19994;31
2022/12/10 04:03:37;;;;;;;;;;;1.80;99.90;;;;;;2622749;46;20741;31
2022/12/10 04:06:15;;;;;;;;;;;1.80;99.90;;;;;;2622250;46;19934;31
2022/12/10 04:08:48;;;;;;;;;;;1.80;99.90;;;;;;2604168;54;19934;31
2022/12/10 04:11:37;;;;;;;;;;;1.80;99.90;;;;;;2603783;54;19942;31
2022/12/10 04:16:57;;;;;;;;;;;1.80;99.90;;;;;;2604094;54;19934;31
2022/12/10 04:19:31;;;;;;;;;;;1.80;99.90;;;;;;2603750;54;20816;31
2022/12/10 04:27:58;;;;;;;;;;;1.80;99.90;;;;;;2622542;46;19935;31
2022/12/10 04:30:34;;;;;;;;;;;1.80;99.90;;;;;;2603837;54;19935;31
2022/12/10 04:33:08;;;;;;;;;;;1.80;99.90;;;;;;2622634;46;20762;31
2022/12/10 04:35:43;;;;;;;;;;;1.80;99.90;;;;;;2603672;54;20013;31
2022/12/10 04:38:21;;;;;;;;;;;1.80;99.90;;;;;;2622420;46;20717;31
2022/12/10 04:40:55;;;;;;;;;;;1.80;99.90;;;;;;2603245;54;19935;31
2022/12/10 04:43:30;;;;;;;;;;;1.80;99.90;;;;;;2603980;54;20757;31
2022/12/10 04:46:04;;;;;;;;;;;1.80;99.90;;;;;;2622244;46;19934;31
2022/12/10 04:48:38;;;;;;;;;;;1.80;99.90;;;;;;2603933;54;19942;31
2022/12/10 04:51:12;;;;;;;;;;;1.80;99.90;;;;;;2603938;54;19934;31
2022/12/10 04:53:49;;;;;;;;;;;1.80;99.90;;;;;;2603620;54;19950;31
2022/12/10 04:56:24;;;;;;;;;;;1.80;99.90;;;;;;2622457;46;19935;31
2022/12/10 04:58:58;;;;;;;;;;;1.80;99.90;;;;;;2603610;54;20795;31
2022/12/10 05:01:35;;;;;;;;;;;1.80;99.90;;;;;;2603967;54;19938;31
2022/12/10 05:04:10;;;;;;;;;;;1.80;99.90;;;;;;2603577;54;19943;31
2022/12/10 05:06:44;;;;;;;;;;;1.80;99.90;;;;;;2603939;54;19942;31
2022/12/10 05:09:20;;;;;;;;;;;1.80;99.90;;;;;;2702499;39;20938;31
2022/12/10 05:11:55;;;;;;;;;;;1.80;99.90;;;;;;2603934;54;20006;31
2022/12/10 05:14:30;;;;;;;;;;;1.80;99.90;;;;;;2622177;46;20018;31
2022/12/10 05:17:04;;;;;;;;;;;2.80;99.90;;;;;;2622200;46;19946;31
2022/12/10 05:19:37;;;;;;;;;;;1.80;99.90;;;;;;2622556;46;19986;31
2022/12/10 05:24:59;;;;;;;;;;;1.70;99.90;;;;;;2622264;46;19982;31
2022/12/10 05:27:37;;;;;;;;;;;1.70;99.90;;;;;;2603938;54;19957;31
2022/12/10 05:30:13;;;;;;;;;;;1.70;99.90;;;;;;2603559;54;19935;31
2022/12/10 05:32:48;;;;;;;;;;;1.80;99.90;;;;;;2603599;54;19935;31
2022/12/10 05:35:22;;;;;;;;;;;1.80;99.90;;;;;;2603517;54;19961;31
2022/12/10 05:37:57;;;;;;;;;;;1.70;99.90;;;;;;2603713;54;19955;31
2022/12/10 05:40:36;;;;;;;;;;;1.70;99.90;;;;;;2622154;46;20704;31
2022/12/10 05:43:10;;;;;;;;;;;1.80;99.90;;;;;;2622090;46;19941;31
2022/12/10 05:45:43;;;;;;;;;;;1.80;99.90;;;;;;2622278;46;19941;31
2022/12/10 05:48:18;;;;;;;;;;;1.80;99.90;;;;;;2622086;46;19934;31
2022/12/10 05:50:52;;;;;;;;;;;1.80;99.90;;;;;;2622211;46;19934;31
2022/12/10 05:53:28;;;;;;;;;;;1.80;99.90;;;;;;2603368;54;19935;31
2022/12/10 05:56:05;;;;;;;;;;;1.80;99.90;;;;;;2603352;54;19972;31
2022/12/10 05:58:39;;;;;;;;;;;1.80;99.90;;;;;;2603272;54;19941;31
2022/12/10 06:01:14;;;;;;;;;;;1.80;99.90;;;;;;2621988;46;19993;31
2022/12/10 06:03:47;;;;;;;;;;;1.80;99.90;;;;;;2617713;46;20795;31
2022/12/10 06:06:23;;;;;;;;;;;1.70;99.90;;;;;;2603171;54;19935;31
2022/12/10 06:08:57;;;;;;;;;;;1.70;99.90;;;;;;2603509;54;19957;31
2022/12/10 06:11:34;;;;;;;;;;;1.70;99.90;;;;;;2603427;54;19938;31
2022/12/10 06:14:08;;;;;;;;;;;1.70;99.90;;;;;;2603524;54;19946;31
2022/12/10 06:16:43;;;;;;;;;;;1.70;99.90;;;;;;2603637;54;19935;31
2022/12/10 06:19:18;;;;;;;;;;;1.70;99.90;;;;;;2603459;54;19935;31
2022/12/10 06:21:51;;;;;;;;;;;1.70;99.90;;;;;;2610375;46;19935;31
2022/12/10 06:24:25;;;;;;;;;;;1.60;99.90;;;;;;2603687;54;19935;31
2022/12/10 06:27:02;;;;;;;;;;;1.70;99.90;;;;;;2603684;54;20813;31
2022/12/10 06:29:36;;;;;;;;;;;1.60;99.90;;;;;;2603287;54;19993;31
2022/12/10 06:32:11;;;;;;;;;;;1.60;99.90;;;;;;2621859;46;20009;31
2022/12/10 06:34:45;;;;;;;;;;;1.60;99.90;;;;;;2622107;46;20776;31
2022/12/10 06:37:20;;;;;;;;;;;1.60;99.90;;;;;;2603652;54;20800;31
2022/12/10 06:39:53;;;;;;;;;;;1.60;99.90;;;;;;2622043;46;19935;31
2022/12/10 06:42:30;;;;;;;;;;;1.60;99.90;;;;;;2621830;46;20020;31
2022/12/10 06:45:04;;;;;;;;;;;1.60;99.90;;;;;;2622099;46;19942;31
2022/12/10 06:47:39;;;;;;;;;;;1.50;99.90;;;;;;2603315;54;19962;31
2022/12/10 06:50:16;;;;;;;;;;;1.50;99.90;;;;;;2621567;46;19935;31
2022/12/10 06:52:49;;;;;;;;;;;1.50;99.90;;;;;;2603467;54;20737;31
2022/12/10 06:55:27;;;;;;;;;;;1.40;99.90;;;;;;2603306;54;19935;31
2022/12/10 06:58:06;;;;;;;;;;;1.50;99.90;;;;;;2621811;47;19935;31
2022/12/10 07:00:43;;;;;;;;;;;1.40;99.90;;;;;;2603095;54;20811;31
2022/12/10 07:03:19;;;;;;;;;;;1.40;99.90;;;;;;2602590;54;19934;31
2022/12/10 07:05:52;;;;;;;;;;;1.40;99.90;;;;;;2603329;54;19961;31
2022/12/10 07:08:27;;;;;;;;;;;1.40;99.90;;;;;;2603561;54;19935;31
2022/12/10 07:11:02;;;;;;;;;;;1.40;99.90;;;;;;2603462;54;19935;31
2022/12/10 07:13:42;;;;;;;;;;;1.40;99.90;;;;;;2621531;47;20750;31
2022/12/10 07:16:18;;;;;;;;;;;1.50;99.90;;;;;;2621730;47;20732;31
2022/12/10 07:18:53;;;;;;;;;;;1.40;99.90;;;;;;2604127;54;19935;31
2022/12/10 07:21:28;;;;;;;;;;;1.40;99.90;;;;;;2604322;54;20733;31
2022/12/10 07:24:03;;;;;;;;;;;1.40;99.90;;;;;;2622534;46;19961;31
2022/12/10 07:26:41;;;;;;;;;;;1.40;99.90;;;;;;2604165;54;19935;31
2022/12/10 07:29:18;;;;;;;;;;;1.40;99.90;;;;;;2622708;46;20755;31
2022/12/10 07:31:54;;;;;;;;;;;1.40;99.90;;;;;;2604204;54;19946;31
2022/12/10 07:34:29;;;;;;;;;;;1.40;99.90;;;;;;2603838;54;20730;31
2022/12/10 07:37:03;;;;;;;;;;;1.40;99.90;;;;;;2622382;46;19956;31
2022/12/10 07:39:38;;;;;;;;;;;1.40;99.90;;;;;;2603940;54;19934;31
2022/12/10 07:42:10;;;;;;;;;;;1.40;99.90;;;;;;2622375;46;19989;31
2022/12/10 07:44:47;;;;;;;;;;;1.40;99.90;;;;;;2603839;54;19934;31
2022/12/10 07:47:21;;;;;;;;;;;1.40;99.90;;;;;;2604237;54;19941;31
2022/12/10 07:49:59;;;;;;;;;;;1.30;99.90;;;;;;2603983;54;20822;31
2022/12/10 07:52:35;;;;;;;;;;;1.40;99.90;;;;;;2604089;54;20029;31
2022/12/10 07:55:11;;;;;;;;;;;1.30;99.90;;;;;;2603306;54;19942;31
2022/12/10 07:57:45;;;;;;;;;;;1.40;99.90;;;;;;2603084;54;20779;31
2022/12/10 08:00:25;;;;;;;;;;;1.40;99.90;;;;;;2603807;54;20753;31
2022/12/10 08:03:00;;;;;;;;;;;1.40;99.90;;;;;;2604047;54;19990;31
2022/12/10 08:05:38;;;;;;;;;;;1.40;99.90;;;;;;2603749;54;19934;31
2022/12/10 08:08:14;;;;;;;;;;;2.20;99.90;;;;;;2622448;46;19943;31
2022/12/10 08:10:51;;;;;;;;;;;1.40;99.90;;;;;;2603758;54;19942;31
2022/12/10 08:13:26;;;;;;;;;;;1.40;99.90;;;;;;2603768;54;19947;31
2022/12/10 08:16:06;;;;;;;;;;;1.40;99.90;;;;;;2604034;54;20783;31
2022/12/10 08:18:42;;;;;;;;;;;1.40;99.90;;;;;;2603557;54;20928;31
2022/12/10 08:21:20;;;;;;;;;;;1.40;99.90;;;;;;2603678;54;19935;31
2022/12/10 08:23:55;;;;;;;;;;;1.40;99.90;;;;;;2603706;54;19934;31
2022/12/10 08:26:30;;;;;;;;;;;1.50;99.90;;;;;;2619468;46;19997;31
2022/12/10 08:29:05;;;;;;;;;;;1.40;99.90;;;;;;2622181;46;19942;31
2022/12/10 08:31:42;;;;;;;;;;;1.40;99.90;;;;;;2603929;54;19934;31
2022/12/10 08:34:17;;;;;;;;;;;1.50;99.90;;;;;;2603683;54;20782;31
2022/12/10 08:36:56;;;;;;;;;;;1.50;99.90;;;;;;2603641;54;20762;31
2022/12/10 08:39:28;;;;;;;;;;;1.50;99.90;;;;;;2603868;54;20763;31
2022/12/10 08:42:02;;;;;;;;;;;1.50;99.90;;;;;;2603851;54;19993;31
2022/12/10 08:44:38;;;;;;;;;;;1.50;99.90;;;;;;2603673;54;19957;31
2022/12/10 08:47:15;;;;;;;;;;;1.50;99.90;;;;;;2622216;46;19934;31
2022/12/10 08:49:49;;;;;;;;;;;1.50;99.90;;;;;;2603595;54;20852;31
2022/12/10 08:52:25;;;;;;;;;;;1.50;99.90;;;;;;2622399;46;19935;31
2022/12/10 08:54:59;;;;;;;;;;;1.50;99.90;;;;;;2603414;54;19943;31
2022/12/10 08:57:34;;;;;;;;;;;1.50;99.90;;;;;;2603527;54;20756;31
2022/12/10 09:00:09;;;;;;;;;;;1.50;99.90;;;;;;2622501;46;19935;31
2022/12/10 09:02:49;;;;;;;;;;;1.50;99.90;;;;;;2603735;54;20777;31
2022/12/10 09:05:24;;;;;;;;;;;1.50;99.90;;;;;;2602830;54;20014;31
2022/12/10 09:07:59;;;;;;;;;;;1.60;99.90;;;;;;2622407;46;20773;31
2022/12/10 09:10:33;;;;;;;;;;;1.70;99.90;;;;;;2622020;46;20652;31
2022/12/10 09:13:08;;;;;;;;;;;1.70;99.90;;;;;;2622078;46;20018;31
2022/12/10 09:15:42;;;;;;;;;;;1.70;99.90;;;;;;2622188;46;19939;31
2022/12/10 09:18:19;;;;;;;;;;;1.60;99.90;;;;;;2603154;54;19935;31
2022/12/10 09:20:55;;;;;;;;;;;1.60;99.90;;;;;;2603530;54;20022;31
2022/12/10 09:23:28;;;;;;;;;;;1.60;99.90;;;;;;2622377;46;20731;31
2022/12/10 09:26:03;;;;;;;;;;;1.70;99.90;;;;;;2603736;54;19942;31
2022/12/10 09:28:38;;;;;;;;;;;1.60;99.90;;;;;;2603579;54;20725;31
2022/12/10 09:31:15;;;;;;;;;;;1.60;99.90;;;;;;2603827;54;19942;31
2022/12/10 09:33:57;;;;;;;;;;;1.60;99.90;;;;;;2603538;54;19941;31
2022/12/10 09:36:31;;;;;;;;;;;1.60;99.90;;;;;;2603717;54;20021;31
2022/12/10 09:39:07;;;;;;;;;;;1.60;99.90;;;;;;2622308;46;20016;31
2022/12/10 09:41:45;;;;;;;;;;;1.60;99.90;;;;;;2622276;46;20847;31
2022/12/10 09:44:23;;;;;;;;;;;1.60;99.90;;;;;;2603835;54;19941;31
2022/12/10 09:46:59;;;;;;;;;;;1.60;99.90;;;;;;2603373;54;19942;31
2022/12/10 09:49:36;;;;;;;;;;;1.60;99.90;;;;;;2603692;54;19946;31
2022/12/10 09:52:13;;;;;;;;;;;1.60;99.90;;;;;;2603663;54;20803;31
2022/12/10 09:54:46;;;;;;;;;;;1.60;99.90;;;;;;2603651;54;20792;31
2022/12/10 09:57:22;;;;;;;;;;;1.70;99.90;;;;;;2603575;54;20718;31
2022/12/10 09:59:57;;;;;;;;;;;1.70;99.90;;;;;;2621876;46;20808;31
2022/12/10 10:02:32;;;;;;;;;;;1.70;99.90;;;;;;2622194;46;19941;31
2022/12/10 10:05:13;;;;;;;;;;;2.70;99.90;;;;;;2622091;46;19969;31
2022/12/10 10:07:50;;;;;;;;;;;1.80;99.90;;;;;;2621876;46;20772;31
2022/12/10 10:10:26;;;;;;;;;;;1.80;99.90;;;;;;2603353;54;20756;31
2022/12/10 10:13:02;;;;;;;;;;;1.80;99.90;;;;;;2621480;46;19949;31
2022/12/10 10:15:38;;;;;;;;;;;1.80;99.90;;;;;;2603600;54;19941;31
2022/12/10 10:18:14;;;;;;;;;;;1.90;99.90;;;;;;2603446;54;20694;31
2022/12/10 10:20:51;;;;;;;;;;;1.80;99.90;;;;;;2603210;54;20749;31
2022/12/10 10:23:29;;;;;;;;;;;1.90;99.90;;;;;;2603385;54;19982;31
2022/12/10 10:26:04;;;;;;;;;;;1.90;99.90;;;;;;2614662;46;20792;31
2022/12/10 10:28:38;;;;;;;;;;;2.10;99.90;;;;;;2603571;54;19941;31
2022/12/10 10:31:15;;;;;;;;;;;2.10;99.90;;;;;;2603406;54;20723;31
2022/12/10 10:33:56;;;;;;;;;;;2.10;99.90;;;;;;2603425;54;20726;31
2022/12/10 10:36:35;;;;;;;;;;;2.20;99.90;;;;;;2603528;54;20774;31
2022/12/10 10:39:11;;;;;;;;;;;2.10;99.90;;;;;;2603143;54;20010;31
2022/12/10 10:41:48;;;;;;;;;;;2.10;99.90;;;;;;2603368;54;19957;31
2022/12/10 10:44:31;;;;;;;;;;;2.50;99.90;;;;;;2603306;54;19935;31
2022/12/10 10:47:06;;;;;;;;;;;2.30;99.90;;;;;;2603391;54;20855;31
2022/12/10 10:49:40;;;;;;;;;;;2.30;99.90;;;;;;2621933;46;19991;31
2022/12/10 10:55:40;;;;;;;47.65;26.95;;;2.50;99.90;;;;;;2646740;53;20982;31
2022/12/10 10:58:20;;;;;;;43.30;24.60;;;2.50;99.90;;;;;;2607532;54;20138;31
2022/12/10 11:01:00;;;;;;;48.13;26.73;;;2.50;99.90;;;;;;2625996;46;20026;31
2022/12/10 11:03:37;;;;;;;53.72;29.85;;;2.50;99.90;;;;;;2607592;54;20309;31
2022/12/10 11:06:13;;;;;;;44.28;26.20;;;2.40;99.90;;;;;;2625926;46;20050;31
2022/12/10 11:08:49;;;;;;;47.85;27.23;;;2.40;99.90;;;;;;2607455;54;20038;31
2022/12/10 11:11:33;;;;;;;45.50;26.73;;;2.30;99.90;;;;;;2606779;54;20056;31
2022/12/10 11:14:18;;;;;;;43.65;25.60;;;2.30;99.90;;;;;;2607383;54;19941;31
2022/12/10 11:16:55;;;;;;;46.58;26.73;;;2.30;99.90;;;;;;2607709;54;20893;31
2022/12/10 11:19:32;;;;;;;71.75;38.78;;;2.20;99.90;;;;;;2607509;54;20030;31
2022/12/10 11:22:23;;;;;;;55.22;30.20;;;2.10;99.90;;;;;;2607402;54;20085;31
2022/12/10 11:25:01;;;;;;;51.53;30.02;;;2.20;99.90;;;;;;2607459;54;20050;31
2022/12/10 11:27:46;;;;;;;55.33;31.40;;;2.10;99.90;;;;;;2724893;38;21537;31
2022/12/10 11:30:22;;;;;;;54.28;32.38;;;2.10;99.90;;;;;;2607460;54;20023;31
2022/12/10 11:33:14;;;;;;;;;;;2.10;99.90;;;;;;2607669;54;20030;31
2022/12/10 11:35:53;;;;;;;49.75;30.02;;;2.10;99.90;;;;;;2625732;46;19934;31
2022/12/10 11:38:30;;;;;;;52.13;28.48;;;2.10;99.90;;;;;;2625830;46;20030;31
2022/12/10 11:41:11;;;;;;;51.40;29.15;;;2.20;99.90;;;;;;2607274;54;20867;31
2022/12/10 11:44:11;;;;;;;52.40;28.80;;;2.20;99.90;;;;;;2607409;54;20026;31
2022/12/10 11:47:05;;;;;;;49.90;27.70;;;2.10;99.90;;;;;;2607434;54;20849;31
2022/12/10 11:49:43;;;;;;;49.58;26.60;;;2.10;99.90;;;;;;2626026;46;20078;31
2022/12/10 11:52:23;;;;;;;51.70;28.50;;;2.10;99.90;;;;;;2625905;46;20046;31
2022/12/10 11:55:05;;;;;;;49.03;28.97;;;2.10;99.90;;;;;;2607135;54;20076;31
2022/12/10 11:57:49;;;;;;;50.40;29.75;;;2.10;99.90;;;;;;2625778;46;20246;31
2022/12/10 12:00:28;;;;;;;54.35;29.00;;;2.20;99.90;;;;;;2607243;54;20029;31
2022/12/10 12:03:30;;;;;;;56.47;31.80;;;2.20;99.90;;;;;;2607332;54;20077;31
2022/12/10 12:06:18;;;;;;;66.32;32.55;;;2.20;99.90;;;;;;2604854;54;21039;31
2022/12/10 12:08:52;;;;;;;56.40;31.67;;;2.20;99.90;;;;;;2603679;54;20038;31
2022/12/10 12:12:00;;;;;;;58.10;30.48;;;2.30;99.90;;;;;;2603645;54;20911;31
2022/12/10 12:14:39;;;;;;;60.00;32.60;;;2.30;99.90;;;;;;2603454;54;20863;31
2022/12/10 12:17:22;;;;;;;62.42;30.70;;;2.30;99.90;;;;;;2603663;54;20061;31
2022/12/10 12:19:59;;;;;;;55.75;31.30;;;2.30;99.90;;;;;;2622103;46;20026;31
2022/12/10 12:22:36;;;;;;;63.60;35.55;;;2.30;99.90;;;;;;2603668;54;20915;31
2022/12/10 12:30:30;;;;;;;209.57;39.05;;;2.90;99.90;;;;;;2749489;37;20445;31
2022/12/10 12:33:08;;;;;;;53.13;28.23;;;3.10;99.90;;;;;;2606648;54;20030;31
2022/12/10 12:35:46;;;;;;;50.78;27.15;;;3.30;99.90;;;;;;2607667;54;20032;31
2022/12/10 12:38:50;;;;;;;54.60;30.38;;;3.20;99.90;;;;;;2607417;54;20831;31
2022/12/10 12:41:32;;;;;;;48.20;27.90;;;3.20;99.90;;;;;;2607437;54;20026;31
2022/12/10 12:44:12;;;;;;;65.97;36.67;;;3.10;99.90;;;;;;2607646;54;20093;31
2022/12/10 12:46:52;;;;;;;59.33;33.85;;;3.00;99.90;;;;;;2606654;54;20030;31
2022/12/10 12:49:31;;;;;;;61.70;35.40;;;2.90;99.90;;;;;;2607084;54;20033;31
2022/12/10 12:52:13;;;;;;;60.63;35.58;;;2.80;99.90;;;;;;2626018;46;20948;31
2022/12/10 12:54:48;;;;;;;61.10;35.45;;;2.70;99.90;;;;;;2607343;54;20840;31
2022/12/10 12:57:26;;;;;;;60.90;33.50;;;2.70;99.90;;;;;;2607476;54;20037;31
2022/12/10 13:00:05;;;;;;;58.50;33.42;;;2.60;99.90;;;;;;2607549;54;20030;31
2022/12/10 13:03:01;;;;;;;58.63;32.55;;;2.60;99.90;;;;;;2625946;46;20053;31
2022/12/10 13:05:35;;;;;;;59.08;33.35;;;2.50;99.90;;;;;;2625942;46;20014;31
2022/12/10 13:08:36;;;;;;;55.70;31.83;;;2.50;99.90;;;;;;2607500;54;20026;31
2022/12/10 13:11:20;;;;;;;59.42;31.25;;;2.50;99.90;;;;;;2607223;54;20912;31
2022/12/10 13:14:33;;;;;;;59.97;32.97;;;2.50;99.90;;;;;;2607219;54;20033;31
2022/12/10 13:17:27;;;;;;;75.95;38.85;;;2.40;99.90;;;;;;2607007;54;20794;31
2022/12/10 13:20:31;;;;;;;77.20;39.95;;;2.30;99.90;;;;;;2607260;54;20026;31
2022/12/10 13:23:06;;;;;;;130.30;65.63;;;2.40;99.90;;;;;;2607043;54;20044;31
2022/12/10 13:26:03;;;;;;;112.78;54.92;;;2.30;99.90;;;;;;2607231;54;20033;31
2022/12/10 13:28:51;;;;;;;87.85;45.45;;;2.30;99.90;;;;;;2625563;46;20100;31
2022/12/10 13:31:39;;;;;;;70.00;37.80;;;2.30;99.90;;;;;;2607202;54;20835;31
2022/12/10 13:34:26;;;;;;;77.10;39.85;;;2.30;99.90;;;;;;2607062;54;20029;31
2022/12/10 13:37:38;;;;;;;71.30;37.00;;;2.30;99.90;;;;;;2607224;54;25060;31
2022/12/10 13:40:11;;;;;;;67.53;38.50;;;2.30;99.90;;;;;;2606117;54;20846;31
2022/12/10 13:45:41;;;;;;;89.17;48.43;;;2.30;99.90;;;;;;2603680;54;20270;31
2022/12/10 13:48:30;;;;;;;77.03;42.17;;;2.30;99.90;;;;;;2603726;54;20095;31
2022/12/10 13:51:33;;;;;;;83.03;43.50;;;2.20;99.90;;;;;;2603294;54;20895;31
2022/12/10 13:54:15;;;;;;;112.63;53.55;;;2.20;99.90;;;;;;2603451;54;20180;31
2022/12/10 13:56:52;;;;;;;186.43;86.00;;;2.10;99.90;;;;;;2603658;54;20083;31
2022/12/10 13:59:37;;;;;;;126.95;61.08;;;2.10;99.90;;;;;;2603552;54;20830;31
2022/12/10 14:02:28;;;;;;;73.07;40.42;;;2.10;99.90;;;;;;2622233;46;20053;31
2022/12/10 14:05:30;;;;;;;72.40;38.20;;;2.10;99.90;;;;;;2603373;54;20941;31
2022/12/10 14:08:15;;;;;;;74.88;37.50;;;2.10;99.90;;;;;;2603448;54;20050;31
2022/12/10 14:10:50;;;;;;;68.60;37.00;;;2.00;99.90;;;;;;2603352;54;20023;31
2022/12/10 14:13:28;;;;;;;67.30;35.88;;;2.00;99.90;;;;;;2603717;54;20891;31
2022/12/10 14:16:07;;;;;;;62.50;35.05;;;2.00;99.90;;;;;;2621862;46;20916;31
2022/12/10 14:18:42;;;;;;;75.15;39.90;;;2.00;99.90;;;;;;2603709;54;20030;31
2022/12/10 14:21:17;;;;;;;65.67;34.37;;;2.00;99.90;;;;;;2602953;54;20921;31
2022/12/10 14:23:55;;;;;;;66.85;35.60;;;2.00;99.90;;;;;;2603733;54;20049;31
2022/12/10 14:26:31;;;;;;;69.47;35.28;;;2.00;99.90;;;;;;2603479;54;20105;31
2022/12/10 14:29:20;;;;;;;83.18;44.17;;;2.00;99.90;;;;;;2603686;54;20030;31
2022/12/10 14:32:00;;;;;;;74.65;40.70;;;2.00;99.90;;;;;;2603685;54;20023;31
2022/12/10 14:34:38;;;;;;;71.55;36.50;;;2.00;99.90;;;;;;2603473;54;20030;31
2022/12/10 14:37:13;;;;;;;71.80;35.60;;;2.00;99.90;;;;;;2603364;54;20892;31
2022/12/10 14:39:48;;;;;;;73.43;38.45;;;2.00;99.90;;;;;;2701982;39;21488;31
2022/12/10 14:42:23;;;;;;;89.35;45.70;;;2.00;99.90;;;;;;2603628;54;20025;31
2022/12/10 14:45:00;;;;;;;82.60;43.25;;;1.90;99.90;;;;;;2603478;54;20096;31
2022/12/10 14:47:35;;;;;;;62.65;34.38;;;2.00;99.90;;;;;;2621838;46;20865;31
2022/12/10 14:50:16;;;;;;;87.63;43.05;;;1.90;99.90;;;;;;2603487;54;20886;31
2022/12/10 14:52:53;;;;;;;97.67;48.23;;;1.90;99.90;;;;;;2621601;46;20026;31
2022/12/10 14:55:29;;;;;;;115.43;56.88;;;1.80;99.90;;;;;;2603372;54;21176;31
2022/12/10 14:58:04;;;;;;;104.30;52.00;;;1.80;99.90;;;;;;2621656;46;20830;31
2022/12/10 15:00:40;;;;;;;139.90;69.70;;;1.80;99.90;;;;;;2621582;46;20873;31
2022/12/10 15:03:20;;;;;;;96.30;48.10;;;1.90;99.90;;;;;;2603510;54;20887;31
2022/12/10 15:06:02;;;;;;;106.13;53.70;;;1.90;99.90;;;;;;2603291;54;20026;31
2022/12/10 15:08:37;;;;;;;86.57;45.03;;;1.80;99.90;;;;;;2603495;54;19954;31
2022/12/10 15:11:13;;;;;;;79.80;41.85;;;1.80;99.90;;;;;;2621757;46;20030;31
2022/12/10 15:13:51;;;;;;;81.90;40.78;;;1.80;99.90;;;;;;2622152;46;20843;31
2022/12/10 15:16:31;;;;;;;72.75;37.65;;;1.80;99.90;;;;;;2603326;54;20038;31
2022/12/10 15:19:18;;;;;;;75.93;38.15;;;1.80;99.90;;;;;;2603363;54;20195;31
2022/12/10 15:21:52;;;;;;;80.25;40.03;;;2.10;99.90;;;;;;2621557;46;20057;31
2022/12/10 15:24:38;;;;;;;148.93;75.20;;;2.20;99.90;;;;;;2603232;54;20828;31
2022/12/10 15:27:19;;;;;;;93.70;51.37;;;2.60;99.90;;;;;;2603602;54;20029;31
2022/12/10 15:29:53;;;;;;;69.63;35.23;;;3.00;99.90;;;;;;2603394;54;20026;31